Time;durP1;ratioP1;P1;durP2;ratioP2;P2;SDS_P1;SDS_P2;PMS_P1;PMS_P2;Temp;Humidity;BMP_temperature;BMP_pressure;BME280_temperature;BME280_humidity;BME280_pressure;Samples;Min_cycle;Max_cycle;Signal;HPM_P1;HPM_P2
2022/03/28 00:00:38;;;;;;;5.60;2.10;;;;;;;;;;4861279;29;20033;-87
2022/03/28 00:03:05;;;;;;;5.15;1.95;;;;;;;;;;4860372;29;20034;-87
2022/03/28 00:05:31;;;;;;;7.03;2.03;;;;;;;;;;4860489;29;20030;-86
2022/03/28 00:07:58;;;;;;;6.22;2.15;;;;;;;;;;4860665;29;20124;-87
2022/03/28 00:10:25;;;;;;;5.30;2.00;;;;;;;;;;4862885;29;20067;-87
2022/03/28 00:12:51;;;;;;;4.68;2.05;;;;;;;;;;4864680;29;20437;-88
2022/03/28 00:15:17;;;;;;;7.47;2.38;;;;;;;;;;4864332;29;20033;-88
2022/03/28 00:17:43;;;;;;;5.43;1.77;;;;;;;;;;4864036;29;20029;-88
2022/03/28 00:20:11;;;;;;;6.32;2.20;;;;;;;;;;4864491;29;20053;-88
2022/03/28 00:22:38;;;;;;;5.53;1.67;;;;;;;;;;4864073;29;20037;-86
2022/03/28 00:25:05;;;;;;;6.82;2.03;;;;;;;;;;4863865;29;20085;-88
2022/03/28 00:27:31;;;;;;;9.45;2.30;;;;;;;;;;4863603;29;20116;-88
2022/03/28 00:29:57;;;;;;;7.38;1.88;;;;;;;;;;4863474;29;20040;-89
2022/03/28 00:32:23;;;;;;;6.70;1.95;;;;;;;;;;4863779;29;20081;-87
2022/03/28 00:34:50;;;;;;;4.57;1.92;;;;;;;;;;4863483;29;20030;-86
2022/03/28 00:37:16;;;;;;;6.38;2.15;;;;;;;;;;4863723;29;20053;-87
2022/03/28 00:39:43;;;;;;;8.23;2.03;;;;;;;;;;4863761;29;20030;-87
2022/03/28 00:42:09;;;;;;;8.43;2.25;;;;;;;;;;4864143;29;20037;-87
2022/03/28 00:44:36;;;;;;;10.70;2.50;;;;;;;;;;4865065;29;20547;-87
2022/03/28 00:47:02;;;;;;;4.55;1.85;;;;;;;;;;4865269;29;20029;-87
2022/03/28 00:49:29;;;;;;;8.10;2.25;;;;;;;;;;4876894;29;20017;-84
2022/03/28 00:51:55;;;;;;;7.85;1.98;;;;;;;;;;4871172;29;20065;-88
2022/03/28 00:54:22;;;;;;;5.97;2.25;;;;;;;;;;4864709;29;20192;-88
2022/03/28 00:56:49;;;;;;;4.65;1.98;;;;;;;;;;4865277;29;20030;-87
2022/03/28 00:59:16;;;;;;;5.18;2.03;;;;;;;;;;4864002;29;20070;-88
2022/03/28 01:01:44;;;;;;;5.15;2.13;;;;;;;;;;4865700;29;20068;-87
2022/03/28 01:04:10;;;;;;;9.35;2.25;;;;;;;;;;4863382;29;20034;-88
2022/03/28 01:06:37;;;;;;;5.20;2.38;;;;;;;;;;4862627;29;20082;-87
2022/03/28 01:09:04;;;;;;;5.32;2.03;;;;;;;;;;4863409;29;20464;-88
2022/03/28 01:11:33;;;;;;;3.83;1.60;;;;;;;;;;4863924;29;20041;-88
2022/03/28 01:14:00;;;;;;;5.65;1.77;;;;;;;;;;4863564;29;20041;-87
2022/03/28 01:18:05;;;;;;;9.60;1.88;;;;;;;;;;4863832;29;20057;-87
2022/03/28 01:19:23;;;;;;;4.03;1.35;;;;;;;;;;4864247;29;20491;-87
2022/03/28 01:21:49;;;;;;;5.03;1.60;;;;;;;;;;4863153;29;20038;-88
2022/03/28 01:24:15;;;;;;;4.63;1.90;;;;;;;;;;4863328;29;20037;-88
2022/03/28 01:26:43;;;;;;;4.00;1.60;;;;;;;;;;4863285;29;20033;-88
2022/03/28 01:29:10;;;;;;;5.22;1.80;;;;;;;;;;4862834;29;20025;-88
2022/03/28 01:31:39;;;;;;;9.38;2.45;;;;;;;;;;4863193;29;20030;-88
2022/03/28 01:34:06;;;;;;;6.72;1.98;;;;;;;;;;4864396;29;20108;-87
2022/03/28 01:36:32;;;;;;;7.18;2.05;;;;;;;;;;4871974;29;20033;-88
2022/03/28 01:38:58;;;;;;;6.03;1.90;;;;;;;;;;4876267;29;20045;-88
2022/03/28 01:41:24;;;;;;;9.48;1.88;;;;;;;;;;4878395;29;20032;-88
2022/03/28 01:43:50;;;;;;;6.18;2.45;;;;;;;;;;4879232;29;20033;-88
2022/03/28 01:46:16;;;;;;;4.82;1.80;;;;;;;;;;4877041;29;20030;-88
2022/03/28 01:48:42;;;;;;;6.55;1.75;;;;;;;;;;4877848;29;20093;-87
2022/03/28 01:51:09;;;;;;;7.75;1.63;;;;;;;;;;4875427;29;20064;-87
2022/03/28 01:53:35;;;;;;;4.85;1.73;;;;;;;;;;4875944;29;20109;-87
2022/03/28 01:56:01;;;;;;;5.70;1.63;;;;;;;;;;4873980;29;20100;-88
2022/03/28 01:58:27;;;;;;;3.88;1.60;;;;;;;;;;4877435;29;20056;-86
2022/03/28 02:00:53;;;;;;;5.07;1.95;;;;;;;;;;4869835;29;20040;-87
2022/03/28 02:03:20;;;;;;;7.05;2.28;;;;;;;;;;4864265;29;20037;-87
2022/03/28 02:05:46;;;;;;;3.65;1.65;;;;;;;;;;4862168;29;20065;-88
2022/03/28 02:08:12;;;;;;;3.78;1.40;;;;;;;;;;4862433;29;20101;-85
2022/03/28 02:10:38;;;;;;;8.48;1.90;;;;;;;;;;4862413;29;20031;-88
2022/03/28 02:13:05;;;;;;;6.45;2.20;;;;;;;;;;4863811;29;20041;-87
2022/03/28 02:15:31;;;;;;;11.00;2.17;;;;;;;;;;4862855;29;20026;-87
2022/03/28 02:17:59;;;;;;;3.90;1.63;;;;;;;;;;4862806;29;20076;-87
2022/03/28 02:20:25;;;;;;;3.33;1.38;;;;;;;;;;4863138;29;20030;-87
2022/03/28 02:22:51;;;;;;;4.22;1.60;;;;;;;;;;4864323;29;20101;-88
2022/03/28 02:25:18;;;;;;;2.65;1.10;;;;;;;;;;4863605;29;20035;-87
2022/03/28 02:27:44;;;;;;;4.55;2.05;;;;;;;;;;4881133;29;20045;-87
2022/03/28 02:30:11;;;;;;;4.03;1.50;;;;;;;;;;4863341;29;20089;-86
2022/03/28 02:32:38;;;;;;;4.28;1.38;;;;;;;;;;4861925;29;20036;-87
2022/03/28 02:35:04;;;;;;;4.03;1.40;;;;;;;;;;4861906;29;20025;-88
2022/03/28 02:37:31;;;;;;;18.98;1.67;;;;;;;;;;4861013;29;20063;-87
2022/03/28 02:39:57;;;;;;;7.25;1.73;;;;;;;;;;4861734;29;20245;-87
2022/03/28 02:42:23;;;;;;;5.65;1.60;;;;;;;;;;4861548;29;20033;-87
2022/03/28 02:44:53;;;;;;;4.97;1.95;;;;;;;;;;4861505;29;20030;-88
2022/03/28 02:47:20;;;;;;;5.82;1.40;;;;;;;;;;4861138;29;20041;-85
2022/03/28 02:49:46;;;;;;;4.97;1.80;;;;;;;;;;4860715;29;20029;-85
2022/03/28 02:52:12;;;;;;;3.92;1.58;;;;;;;;;;4879243;29;20060;-87
2022/03/28 02:54:38;;;;;;;5.57;2.13;;;;;;;;;;4879878;29;20029;-86
2022/03/28 02:57:08;;;;;;;7.47;1.92;;;;;;;;;;4880035;29;20060;-87
2022/03/28 02:59:34;;;;;;;4.65;1.55;;;;;;;;;;4879700;29;20068;-87
2022/03/28 03:02:02;;;;;;;7.28;2.08;;;;;;;;;;4879545;29;20036;-87
2022/03/28 03:04:28;;;;;;;3.70;1.35;;;;;;;;;;4881368;29;20090;-86
2022/03/28 03:06:54;;;;;;;4.75;1.70;;;;;;;;;;4880136;29;20029;-87
2022/03/28 03:09:20;;;;;;;6.10;1.65;;;;;;;;;;4879533;29;20029;-85
2022/03/28 03:11:47;;;;;;;5.72;1.85;;;;;;;;;;4879391;29;20495;-87
2022/03/28 03:14:13;;;;;;;6.70;1.88;;;;;;;;;;4879469;29;20033;-87
2022/03/28 03:16:40;;;;;;;4.50;1.80;;;;;;;;;;4879614;29;20395;-88
2022/03/28 03:19:07;;;;;;;8.13;2.90;;;;;;;;;;4879186;29;20037;-88
2022/03/28 03:21:39;;;;;;;6.72;2.63;;;;;;;;;;4879176;29;20037;-88
2022/03/28 03:24:05;;;;;;;9.10;2.58;;;;;;;;;;4879884;29;20036;-88
2022/03/28 03:26:32;;;;;;;5.90;2.13;;;;;;;;;;4880011;29;20483;-87
2022/03/28 03:28:58;;;;;;;5.95;1.80;;;;;;;;;;4879695;29;20037;-87
2022/03/28 03:31:25;;;;;;;4.78;1.85;;;;;;;;;;4879176;29;20108;-87
2022/03/28 03:33:54;;;;;;;4.03;1.85;;;;;;;;;;4879036;29;20443;-87
2022/03/28 03:36:20;;;;;;;4.35;1.65;;;;;;;;;;4879350;29;20053;-87
2022/03/28 03:38:47;;;;;;;6.45;1.77;;;;;;;;;;4879225;29;20049;-88
2022/03/28 03:41:13;;;;;;;3.95;1.65;;;;;;;;;;4879093;29;20036;-85
2022/03/28 03:43:39;;;;;;;4.97;1.67;;;;;;;;;;4878695;29;20033;-87
2022/03/28 03:46:17;;;;;;;7.20;2.38;;;;;;;;;;4880966;29;20025;-88
2022/03/28 03:48:43;;;;;;;7.43;2.10;;;;;;;;;;4864852;29;20483;-86
2022/03/28 03:51:10;;;;;;;9.45;2.42;;;;;;;;;;4882637;29;20537;-85
2022/03/28 03:53:36;;;;;;;8.55;2.60;;;;;;;;;;4883399;29;20037;-87
2022/03/28 03:56:02;;;;;;;11.25;2.10;;;;;;;;;;4883633;29;20072;-87
2022/03/28 03:58:28;;;;;;;7.53;2.38;;;;;;;;;;4883836;29;20045;-86
2022/03/28 04:00:54;;;;;;;4.70;1.85;;;;;;;;;;4884875;29;20033;-87
2022/03/28 04:03:20;;;;;;;8.73;2.58;;;;;;;;;;4891680;29;20069;-87
2022/03/28 04:05:46;;;;;;;6.68;2.40;;;;;;;;;;4895921;29;20097;-88
2022/03/28 04:08:13;;;;;;;6.20;2.50;;;;;;;;;;4883531;29;20089;-87
2022/03/28 04:10:39;;;;;;;8.73;2.47;;;;;;;;;;4882825;29;20031;-86
2022/03/28 04:13:05;;;;;;;8.88;2.30;;;;;;;;;;4882539;29;20036;-87
2022/03/28 04:15:31;;;;;;;4.43;2.00;;;;;;;;;;4882501;29;20036;-87
2022/03/28 04:17:57;;;;;;;6.10;1.83;;;;;;;;;;4882978;29;20093;-86
2022/03/28 04:20:25;;;;;;;5.07;1.95;;;;;;;;;;4882501;29;20113;-86
2022/03/28 04:22:52;;;;;;;14.75;1.77;;;;;;;;;;4882494;29;20081;-87
2022/03/28 04:25:18;;;;;;;6.47;1.92;;;;;;;;;;4882508;29;20064;-87
2022/03/28 04:27:44;;;;;;;7.05;1.77;;;;;;;;;;4882601;29;20169;-87
2022/03/28 04:30:12;;;;;;;4.30;1.73;;;;;;;;;;4882614;29;20036;-87
2022/03/28 04:32:40;;;;;;;9.07;2.05;;;;;;;;;;4882632;29;20033;-86
2022/03/28 04:35:07;;;;;;;6.47;1.98;;;;;;;;;;4882071;29;20033;-87
2022/03/28 04:37:40;;;;;;;5.63;1.90;;;;;;;;;;4882694;29;20043;-87
2022/03/28 04:40:08;;;;;;;6.40;1.95;;;;;;;;;;4883009;29;20032;-88
2022/03/28 04:42:34;;;;;;;5.90;1.80;;;;;;;;;;4882596;29;20045;-85
2022/03/28 04:45:01;;;;;;;7.03;2.10;;;;;;;;;;4882133;29;20040;-86
2022/03/28 04:47:27;;;;;;;6.55;2.20;;;;;;;;;;4882112;29;20037;-86
2022/03/28 04:49:53;;;;;;;8.30;2.63;;;;;;;;;;4881839;29;20025;-86
2022/03/28 04:52:19;;;;;;;5.20;2.10;;;;;;;;;;4882062;29;20053;-86
2022/03/28 04:54:45;;;;;;;6.75;2.17;;;;;;;;;;4881902;29;20031;-84
2022/03/28 04:57:11;;;;;;;12.15;2.70;;;;;;;;;;4881668;29;20033;-85
2022/03/28 04:59:41;;;;;;;9.23;2.67;;;;;;;;;;4883222;29;20029;-86
2022/03/28 05:02:25;;;;;;;11.20;2.75;;;;;;;;;;4873223;29;20566;-86
2022/03/28 05:04:51;;;;;;;12.07;3.03;;;;;;;;;;4867846;29;20513;-88
2022/03/28 05:07:24;;;;;;;9.55;2.65;;;;;;;;;;4877605;29;20104;-88
2022/03/28 05:09:53;;;;;;;5.97;2.45;;;;;;;;;;4883261;29;20490;-86
2022/03/28 05:12:21;;;;;;;10.15;2.80;;;;;;;;;;4865450;29;20041;-86
2022/03/28 05:14:47;;;;;;;7.68;2.50;;;;;;;;;;4866126;29;20025;-85
2022/03/28 05:17:15;;;;;;;9.20;2.58;;;;;;;;;;4866016;29;20053;-87
2022/03/28 05:19:42;;;;;;;14.27;2.80;;;;;;;;;;4871382;29;20116;-85
2022/03/28 05:22:08;;;;;;;7.13;2.53;;;;;;;;;;4880698;29;20025;-84
2022/03/28 05:24:34;;;;;;;9.02;2.22;;;;;;;;;;4874879;29;20033;-83
2022/03/28 05:27:00;;;;;;;6.10;2.00;;;;;;;;;;4897654;29;20032;-83
2022/03/28 05:29:42;;;;;;;9.77;2.95;;;;;;;;;;4881334;29;20036;-84
2022/03/28 05:32:09;;;;;;;11.23;2.85;;;;;;;;;;4881953;29;20372;-84
2022/03/28 05:34:38;;;;;;;9.50;3.00;;;;;;;;;;4866418;29;20062;-83
2022/03/28 05:37:05;;;;;;;12.23;2.80;;;;;;;;;;4865421;29;20112;-83
2022/03/28 05:39:32;;;;;;;6.95;2.33;;;;;;;;;;4864999;29;20045;-83
2022/03/28 05:41:59;;;;;;;6.18;2.58;;;;;;;;;;4872646;29;20028;-84
2022/03/28 05:44:25;;;;;;;7.55;2.42;;;;;;;;;;4884195;29;20100;-86
2022/03/28 05:46:58;;;;;;;7.78;2.40;;;;;;;;;;4884349;29;20047;-86
2022/03/28 05:49:24;;;;;;;9.05;3.08;;;;;;;;;;4884085;29;20489;-85
2022/03/28 05:51:50;;;;;;;5.85;2.45;;;;;;;;;;4883166;29;20045;-85
2022/03/28 05:54:17;;;;;;;12.05;4.00;;;;;;;;;;4883598;29;20032;-87
2022/03/28 05:56:43;;;;;;;7.63;2.53;;;;;;;;;;4883333;29;20028;-86
2022/03/28 05:59:09;;;;;;;12.80;2.92;;;;;;;;;;4883497;29;20482;-85
2022/03/28 06:01:36;;;;;;;4.53;1.95;;;;;;;;;;4883722;29;20025;-86
2022/03/28 06:04:02;;;;;;;6.55;2.05;;;;;;;;;;4883544;29;20052;-85
2022/03/28 06:09:22;;;;;;;5.72;2.28;;;;;;;;;;4895494;29;20044;-83
2022/03/28 06:11:48;;;;;;;6.30;2.80;;;;;;;;;;4883469;29;20028;-87
2022/03/28 06:14:14;;;;;;;7.32;2.97;;;;;;;;;;4883441;29;20028;-85
2022/03/28 06:16:40;;;;;;;8.60;3.08;;;;;;;;;;4883072;29;20037;-84
2022/03/28 06:19:06;;;;;;;8.00;2.13;;;;;;;;;;4873537;29;20069;-86
2022/03/28 06:21:33;;;;;;;5.68;2.20;;;;;;;;;;4865026;29;20021;-88
2022/03/28 06:24:03;;;;;;;7.07;2.10;;;;;;;;;;4865569;29;20541;-87
2022/03/28 06:26:29;;;;;;;9.60;2.20;;;;;;;;;;4865561;29;20029;-89
2022/03/28 06:29:26;;;;;;;4.95;2.15;;;;;;;;;;4865728;29;20116;-89
2022/03/28 06:32:01;;;;;;;7.85;2.72;;;;;;;;;;4867458;29;20033;-88
2022/03/28 06:34:27;;;;;;;6.18;2.42;;;;;;;;;;4865185;29;20033;-88
2022/03/28 06:37:00;;;;;;;5.60;2.58;;;;;;;;;;4864971;29;20043;-89
2022/03/28 06:39:26;;;;;;;6.85;2.65;;;;;;;;;;4878321;29;20394;-88
2022/03/28 06:42:11;;;;;;;4.68;2.55;;;;;;;;;;4879321;29;20053;-89
2022/03/28 06:44:40;;;;;;;14.95;2.92;;;;;;;;;;4873747;29;20032;-89
2022/03/28 06:47:09;;;;;;;11.07;3.33;;;;;;;;;;4865340;29;20033;-89
2022/03/28 06:49:54;;;;;;;7.20;3.58;;;;;;;;;;4865328;29;20021;-89
2022/03/28 06:55:36;;;;;;;9.63;4.07;;;;;;;;;;4863626;29;20132;-89
2022/03/28 06:58:02;;;;;;;11.60;5.00;;;;;;;;;;4862665;29;20049;-88
2022/03/28 07:00:37;;;;;;;8.27;3.97;;;;;;;;;;4862014;29;20081;-90
2022/03/28 07:03:04;;;;;;;11.90;4.63;;;;;;;;;;4867105;29;20081;-91
2022/03/28 07:05:34;;;;;;;11.13;5.07;;;;;;;;;;4863934;29;20051;-89
2022/03/28 07:08:09;;;;;;;9.82;5.18;;;;;;;;;;4873012;29;20045;-88
2022/03/28 07:14:04;;;;;;;10.23;4.68;;;;;;;;;;4881215;29;20043;-88
2022/03/28 07:20:12;;;;;;;8.82;4.78;;;;;;;;;;4876017;29;20578;-90
2022/03/28 07:25:49;;;;;;;12.43;5.43;;;;;;;;;;4825114;29;20026;-91
2022/03/28 07:28:28;;;;;;;16.73;4.82;;;;;;;;;;4808848;29;20098;-88
2022/03/28 07:34:29;;;;;;;9.73;4.85;;;;;;;;;;4823888;29;20038;-88
2022/03/28 07:37:17;;;;;;;12.32;5.15;;;;;;;;;;4823256;29;20110;-88
2022/03/28 07:43:19;;;;;;;9.07;5.13;;;;;;;;;;5164360;24;20526;-88
2022/03/28 08:00:47;;;;;;;12.38;4.97;;;;;;;;;;4876070;29;20092;-91
2022/03/28 08:09:08;;;;;;;8.68;4.65;;;;;;;;;;4879751;29;19962;-90
2022/03/28 08:11:35;;;;;;;13.68;4.82;;;;;;;;;;4879126;29;20029;-88
2022/03/28 08:14:04;;;;;;;9.27;5.07;;;;;;;;;;4878550;29;20043;-88
2022/03/28 08:27:30;;;;;;;8.88;4.03;;;;;;;;;;4940817;23;20052;-92
2022/03/28 10:06:34;;;;;;;11.05;4.97;;;;;;;;;;5263049;22;20059;-92
2022/03/28 10:09:34;;;;;;;6.38;3.92;;;;;;;;;;5097155;28;20046;-93
2022/03/28 10:15:14;;;;;;;;;;;;;;;;;;5417983;22;20110;-88
2022/03/28 10:21:07;;;;;;;9.57;3.72;;;;;;;;;;5122558;28;20092;-92
2022/03/28 10:23:44;;;;;;;12.70;4.25;;;;;;;;;;5136892;28;20110;-91
2022/03/28 10:29:23;;;;;;;;;;;;;;;;;;5120143;28;20084;-89
2022/03/28 10:32:01;;;;;;;13.35;4.70;;;;;;;;;;5111265;28;19912;-89
2022/03/28 10:40:40;;;;;;;14.25;4.13;;;;;;;;;;5114696;22;20105;-91
2022/03/28 10:43:18;;;;;;;17.30;4.93;;;;;;;;;;5097280;28;20032;-87
2022/03/28 10:45:49;;;;;;;9.15;3.63;;;;;;;;;;5115310;27;20099;-90
2022/03/28 10:48:16;;;;;;;11.23;4.10;;;;;;;;;;5117669;28;20476;-88
2022/03/28 10:51:01;;;;;;;6.55;3.20;;;;;;;;;;5114087;28;20077;-95
2022/03/28 10:53:40;;;;;;;7.13;3.70;;;;;;;;;;5111622;28;20031;-92
2022/03/28 10:56:24;;;;;;;6.43;3.70;;;;;;;;;;5113323;28;20032;-90
2022/03/28 10:58:57;;;;;;;8.48;3.42;;;;;;;;;;5112473;28;20093;-92
2022/03/28 11:01:43;;;;;;;7.22;3.10;;;;;;;;;;5112822;28;20054;-91
2022/03/28 11:07:12;;;;;;;6.47;2.85;;;;;;;;;;5121011;22;20078;-92
2022/03/28 11:09:47;;;;;;;7.22;3.60;;;;;;;;;;5141017;22;20129;-91
2022/03/28 11:12:25;;;;;;;6.68;3.85;;;;;;;;;;5106148;28;20040;-88
2022/03/28 11:14:59;;;;;;;8.18;3.35;;;;;;;;;;5093499;22;20037;-88
2022/03/28 11:17:31;;;;;;;6.88;3.38;;;;;;;;;;5077322;28;20038;-88
2022/03/28 11:23:21;;;;;;;8.02;3.58;;;;;;;;;;5077145;28;20842;-88
2022/03/28 11:26:04;;;;;;;6.72;3.45;;;;;;;;;;5076929;28;20064;-89
2022/03/28 11:28:57;;;;;;;7.88;3.72;;;;;;;;;;5077644;28;20063;-90
2022/03/28 11:31:32;;;;;;;7.82;4.10;;;;;;;;;;5044524;28;20099;-94
2022/03/28 11:34:28;;;;;;;9.05;3.97;;;;;;;;;;5056701;28;20057;-92
2022/03/28 11:37:03;;;;;;;6.43;3.17;;;;;;;;;;5060675;28;20116;-93
2022/03/28 11:42:43;;;;;;;8.15;3.50;;;;;;;;;;5059504;28;20048;-90
2022/03/28 11:45:29;;;;;;;12.65;4.53;;;;;;;;;;5055817;28;20516;-89
2022/03/28 11:51:19;;;;;;;7.53;3.63;;;;;;;;;;5057022;28;20094;-88
2022/03/28 11:53:49;;;;;;;6.85;3.65;;;;;;;;;;5059460;28;20028;-90
2022/03/28 11:56:29;;;;;;;7.55;3.28;;;;;;;;;;5059920;28;20060;-89
2022/03/28 11:59:11;;;;;;;11.68;4.53;;;;;;;;;;5055717;28;20389;-89
2022/03/28 12:01:37;;;;;;;11.00;3.97;;;;;;;;;;5055770;28;20021;-93
2022/03/28 12:04:04;;;;;;;10.52;3.90;;;;;;;;;;5057835;28;20021;-92
2022/03/28 12:09:34;;;;;;;9.25;3.90;;;;;;;;;;5057389;28;20063;-93
2022/03/28 12:12:01;;;;;;;7.75;3.20;;;;;;;;;;5039252;28;20048;-87
2022/03/28 12:14:46;;;;;;;8.30;3.95;;;;;;;;;;5061218;28;20053;-91
2022/03/28 12:17:13;;;;;;;7.30;2.83;;;;;;;;;;5038179;28;20037;-89
2022/03/28 12:20:04;;;;;;;9.30;3.78;;;;;;;;;;5042468;28;20168;-94
2022/03/28 12:33:22;;;;;;;8.00;3.63;;;;;;;;;;5076718;28;20052;-91
2022/03/28 12:35:53;;;;;;;10.48;3.63;;;;;;;;;;5052017;28;20036;-89
2022/03/28 12:38:22;;;;;;;9.32;3.40;;;;;;;;;;5048000;28;20036;-90
2022/03/28 12:40:52;;;;;;;9.02;3.95;;;;;;;;;;5060893;28;20541;-90
2022/03/28 12:43:23;;;;;;;10.93;3.58;;;;;;;;;;5042605;28;20036;-89
2022/03/28 12:46:01;;;;;;;8.90;3.30;;;;;;;;;;5060938;28;20051;-94
2022/03/28 12:48:41;;;;;;;9.60;3.42;;;;;;;;;;5040593;28;20021;-88
2022/03/28 12:51:16;;;;;;;12.82;4.05;;;;;;;;;;5040194;28;20032;-90
2022/03/28 12:53:42;;;;;;;9.18;4.15;;;;;;;;;;5058225;28;20020;-90
2022/03/28 12:56:34;;;;;;;;;;;;;;;;;;;;;
2022/03/28 13:01:50;;;;;;;7.82;3.70;;;;;;;;;;5075460;28;20087;-92
2022/03/28 13:07:29;;;;;;;12.43;3.90;;;;;;;;;;5075992;28;20116;-88
2022/03/28 13:10:02;;;;;;;19.05;4.22;;;;;;;;;;5076110;28;20029;-88
2022/03/28 13:12:43;;;;;;;7.28;3.25;;;;;;;;;;5082074;28;20558;-94
2022/03/28 13:15:26;;;;;;;8.13;3.55;;;;;;;;;;5076904;28;20029;-90
2022/03/28 13:17:55;;;;;;;;;;;;;;;;;;5077720;28;20036;-91
2022/03/28 13:20:25;;;;;;;9.10;3.75;;;;;;;;;;5075264;28;19916;-92
2022/03/28 13:22:59;;;;;;;7.55;3.78;;;;;;;;;;5075586;28;20094;-93
2022/03/28 13:25:31;;;;;;;;;;;;;;;;;;5076458;28;20028;-92
2022/03/28 13:28:01;;;;;;;7.75;4.05;;;;;;;;;;5076520;28;19958;-89
2022/03/28 13:33:36;;;;;;;15.73;3.85;;;;;;;;;;5069770;28;20157;-89
2022/03/28 13:36:05;;;;;;;8.50;3.80;;;;;;;;;;5073954;28;20070;-91
2022/03/28 13:38:37;;;;;;;11.07;4.28;;;;;;;;;;5058478;28;20480;-92
2022/03/28 13:41:25;;;;;;;11.90;3.85;;;;;;;;;;5033584;28;20501;-88
2022/03/28 13:44:02;;;;;;;8.50;3.72;;;;;;;;;;5016203;28;20501;-94
2022/03/28 13:46:28;;;;;;;10.88;3.70;;;;;;;;;;5013498;28;20473;-91
2022/03/28 13:48:56;;;;;;;7.28;3.92;;;;;;;;;;4996847;28;20022;-91
2022/03/28 13:51:23;;;;;;;6.60;3.45;;;;;;;;;;5002825;28;20042;-91
2022/03/28 13:56:25;;;;;;;12.73;4.53;;;;;;;;;;5174925;22;20059;-90
2022/03/28 13:59:13;;;;;;;22.25;5.25;;;;;;;;;;5059554;28;20052;-90
2022/03/28 14:01:59;;;;;;;13.27;4.85;;;;;;;;;;5076543;28;20038;-89
2022/03/28 14:04:26;;;;;;;9.52;5.10;;;;;;;;;;5068404;28;20020;-88
2022/03/28 14:16:04;;;;;;;12.18;4.45;;;;;;;;;;5074968;28;20094;-87
2022/03/28 14:18:30;;;;;;;10.27;4.50;;;;;;;;;;5057099;28;20025;-94
2022/03/28 14:20:56;;;;;;;8.48;4.50;;;;;;;;;;5056792;28;20544;-88
2022/03/28 14:23:28;;;;;;;10.23;4.22;;;;;;;;;;5057430;28;20017;-93
2022/03/28 14:25:55;;;;;;;11.05;4.05;;;;;;;;;;5058426;28;20116;-93
2022/03/28 14:28:22;;;;;;;8.02;3.95;;;;;;;;;;5061219;28;20354;-85
2022/03/28 14:31:16;;;;;;;13.23;4.93;;;;;;;;;;5058516;28;20036;-94
2022/03/28 14:33:41;;;;;;;12.93;4.28;;;;;;;;;;5073991;28;20032;-85
2022/03/28 14:36:07;;;;;;;12.43;4.60;;;;;;;;;;5056870;28;20527;-89
2022/03/28 14:38:34;;;;;;;8.95;4.65;;;;;;;;;;5059485;28;20056;-89
2022/03/28 14:41:04;;;;;;;9.10;4.57;;;;;;;;;;5063204;28;20055;-90
2022/03/28 14:43:30;;;;;;;11.40;4.38;;;;;;;;;;5060423;28;20016;-89
2022/03/28 14:49:05;;;;;;;10.05;4.50;;;;;;;;;;5078711;28;20032;-91
2022/03/28 14:51:33;;;;;;;8.55;4.38;;;;;;;;;;5057903;28;20037;-87
2022/03/28 14:53:59;;;;;;;16.20;5.30;;;;;;;;;;5054482;28;20048;-90
2022/03/28 14:56:25;;;;;;;17.67;6.97;;;;;;;;;;5063372;28;20045;-87
2022/03/28 14:58:51;;;;;;;16.60;8.45;;;;;;;;;;5064562;28;20020;-90
2022/03/28 15:01:17;;;;;;;11.23;4.95;;;;;;;;;;5058319;28;20033;-94
2022/03/28 15:03:44;;;;;;;12.38;4.40;;;;;;;;;;5041037;28;20025;-90
2022/03/28 15:06:14;;;;;;;10.82;4.35;;;;;;;;;;5060697;28;20488;-86
2022/03/28 15:08:40;;;;;;;9.45;3.70;;;;;;;;;;5062769;28;20028;-88
2022/03/28 15:24:44;;;;;;;7.68;3.40;;;;;;;;;;5072026;28;20074;-89
2022/03/28 15:27:10;;;;;;;8.55;3.78;;;;;;;;;;5056953;28;20473;-90
2022/03/28 15:29:39;;;;;;;9.90;3.50;;;;;;;;;;5059603;28;20073;-91
2022/03/28 15:32:12;;;;;;;9.90;3.88;;;;;;;;;;5049073;28;20041;-89
2022/03/28 15:34:42;;;;;;;11.00;4.38;;;;;;;;;;5054487;28;20020;-91
2022/03/28 15:37:10;;;;;;;18.85;7.25;;;;;;;;;;5058352;28;20119;-89
2022/03/28 15:40:03;;;;;;;13.75;4.15;;;;;;;;;;5061565;28;20054;-92
2022/03/28 15:42:35;;;;;;;10.65;3.97;;;;;;;;;;5071718;28;20487;-90
2022/03/28 15:45:27;;;;;;;7.50;3.50;;;;;;;;;;5064717;28;20051;-91
2022/03/28 15:48:08;;;;;;;11.70;4.20;;;;;;;;;;5056179;28;20029;-90
2022/03/28 15:50:51;;;;;;;26.08;12.95;;;;;;;;;;5060363;28;20122;-93
2022/03/28 15:53:26;;;;;;;8.73;3.67;;;;;;;;;;5090130;28;20036;-90
2022/03/28 15:55:54;;;;;;;8.13;3.63;;;;;;;;;;5056956;28;20286;-89
2022/03/28 15:58:39;;;;;;;12.52;4.15;;;;;;;;;;5040184;28;20025;-90
2022/03/28 16:03:51;;;;;;;15.80;4.15;;;;;;;;;;5065058;28;20035;-90
2022/03/28 16:06:17;;;;;;;9.70;4.18;;;;;;;;;;5047802;28;20115;-92
2022/03/28 16:08:56;;;;;;;11.75;3.80;;;;;;;;;;5061277;28;20029;-94
2022/03/28 16:11:41;;;;;;;6.07;3.50;;;;;;;;;;5060420;28;20409;-90
2022/03/28 16:14:08;;;;;;;9.43;4.00;;;;;;;;;;5059919;28;20021;-91
2022/03/28 16:16:52;;;;;;;10.65;3.88;;;;;;;;;;5060200;28;20036;-91
2022/03/28 16:19:19;;;;;;;11.10;3.45;;;;;;;;;;5061219;28;20082;-93
2022/03/28 16:21:46;;;;;;;6.10;3.30;;;;;;;;;;5027863;28;20033;-92
2022/03/28 16:24:18;;;;;;;6.15;3.00;;;;;;;;;;5019246;28;20029;-89
2022/03/28 16:26:51;;;;;;;10.63;3.72;;;;;;;;;;5041975;28;20021;-91
2022/03/28 16:32:11;;;;;;;17.48;6.78;;;;;;;;;;5037691;28;20052;-93
2022/03/28 16:34:39;;;;;;;10.77;4.60;;;;;;;;;;5035128;28;20026;-88
2022/03/28 16:37:10;;;;;;;8.68;3.50;;;;;;;;;;5037849;28;20029;-91
2022/03/28 16:55:22;;;;;;;28.05;4.30;;;;;;;;;;5088501;22;20094;-89
2022/03/28 16:57:50;;;;;;;20.77;7.82;;;;;;;;;;5030179;28;20060;-90
2022/03/28 17:00:17;;;;;;;16.35;7.22;;;;;;;;;;5034461;28;20030;-90
2022/03/28 17:02:58;;;;;;;19.13;4.70;;;;;;;;;;5028670;28;20117;-91
2022/03/28 17:06:24;;;;;;;11.82;4.30;;;;;;;;;;5035104;28;20029;-88
2022/03/28 17:08:23;;;;;;;14.85;4.25;;;;;;;;;;5015524;28;20038;-88
2022/03/28 17:10:57;;;;;;;9.68;3.78;;;;;;;;;;5042129;28;20111;-89
2022/03/28 17:13:34;;;;;;;10.13;4.43;;;;;;;;;;5022353;28;20520;-90
2022/03/28 17:16:08;;;;;;;12.70;4.80;;;;;;;;;;5035644;28;20092;-90
2022/03/28 17:18:34;;;;;;;;;;;;;;;;;;5029940;28;20452;-90
2022/03/28 17:21:01;;;;;;;20.58;4.65;;;;;;;;;;5037543;28;19905;-90
2022/03/28 17:23:32;;;;;;;13.15;4.95;;;;;;;;;;5035810;28;20033;-88
2022/03/28 17:26:01;;;;;;;16.17;4.95;;;;;;;;;;5046960;28;20097;-89
2022/03/28 17:28:28;;;;;;;22.70;5.70;;;;;;;;;;5014288;28;20029;-89
2022/03/28 17:30:58;;;;;;;15.55;6.13;;;;;;;;;;5035178;28;20509;-89
2022/03/28 17:33:27;;;;;;;16.08;4.88;;;;;;;;;;5038054;28;20105;-90
2022/03/28 17:35:53;;;;;;;24.58;5.05;;;;;;;;;;5037144;28;20462;-89
2022/03/28 17:38:43;;;;;;;18.55;6.13;;;;;;;;;;5036659;28;20517;-91
2022/03/28 17:41:13;;;;;;;16.55;5.88;;;;;;;;;;5036171;28;20037;-92
2022/03/28 17:47:05;;;;;;;21.63;7.38;;;;;;;;;;5453250;22;20100;-88
2022/03/28 17:49:31;;;;;;;35.42;10.23;;;;;;;;;;5017636;28;20041;-90
2022/03/28 17:52:20;;;;;;;37.92;13.85;;;;;;;;;;5018271;28;20071;-90
2022/03/28 17:54:48;;;;;;;33.17;14.48;;;;;;;;;;5017215;28;20038;-90
2022/03/28 17:57:14;;;;;;;32.53;15.00;;;;;;;;;;5007292;28;20104;-90
2022/03/28 17:59:41;;;;;;;34.53;14.88;;;;;;;;;;5012472;28;20025;-87
2022/03/28 18:05:15;;;;;;;39.03;13.02;;;;;;;;;;5135326;22;20064;-88
2022/03/28 18:07:42;;;;;;;40.92;13.23;;;;;;;;;;5037052;28;20036;-90
2022/03/28 18:10:10;;;;;;;57.60;13.57;;;;;;;;;;5038135;28;20049;-90
2022/03/28 18:12:36;;;;;;;20.52;7.40;;;;;;;;;;5039955;28;20128;-90
2022/03/28 18:15:02;;;;;;;17.92;8.15;;;;;;;;;;5038144;28;20474;-90
2022/03/28 18:17:28;;;;;;;22.70;9.40;;;;;;;;;;5037397;28;20032;-89
2022/03/28 18:19:58;;;;;;;31.75;11.18;;;;;;;;;;5037424;28;20025;-90
2022/03/28 18:22:27;;;;;;;23.33;7.47;;;;;;;;;;5056008;28;20032;-90
2022/03/28 18:24:53;;;;;;;24.30;7.97;;;;;;;;;;5040674;28;20033;-90
2022/03/28 18:27:19;;;;;;;26.92;9.25;;;;;;;;;;5036178;28;20021;-88
2022/03/28 18:29:46;;;;;;;22.42;8.13;;;;;;;;;;5057115;28;20033;-89
2022/03/28 18:32:12;;;;;;;21.08;7.88;;;;;;;;;;5040467;28;20078;-87
2022/03/28 18:34:41;;;;;;;17.15;8.20;;;;;;;;;;5040527;28;20092;-88
2022/03/28 18:37:07;;;;;;;22.40;7.63;;;;;;;;;;5041162;28;20084;-89
2022/03/28 18:39:33;;;;;;;26.02;8.95;;;;;;;;;;5041524;28;20021;-87
2022/03/28 18:41:59;;;;;;;20.38;9.90;;;;;;;;;;5043907;28;20032;-89
2022/03/28 18:44:28;;;;;;;27.80;9.95;;;;;;;;;;5040496;28;20044;-88
2022/03/28 18:46:55;;;;;;;24.20;9.85;;;;;;;;;;5041183;28;20021;-93
2022/03/28 18:49:27;;;;;;;26.75;10.35;;;;;;;;;;5041522;28;20025;-90
2022/03/28 18:51:56;;;;;;;23.48;10.75;;;;;;;;;;5041898;28;20037;-90
2022/03/28 18:54:28;;;;;;;23.75;10.80;;;;;;;;;;5042134;28;20432;-90
2022/03/28 18:57:05;;;;;;;27.52;10.43;;;;;;;;;;5041301;28;20033;-89
2022/03/28 18:59:34;;;;;;;33.22;12.07;;;;;;;;;;5042438;28;20025;-90
2022/03/28 19:04:48;;;;;;;29.65;12.05;;;;;;;;;;5109873;22;20401;-90
2022/03/28 19:07:17;;;;;;;29.17;11.48;;;;;;;;;;5057686;28;20059;-90
2022/03/28 19:09:50;;;;;;;28.70;11.20;;;;;;;;;;5059130;28;20064;-90
2022/03/28 19:12:33;;;;;;;18.27;10.27;;;;;;;;;;5056121;28;20033;-89
2022/03/28 19:15:06;;;;;;;22.63;9.10;;;;;;;;;;5056695;28;20025;-90
2022/03/28 19:20:19;;;;;;;17.13;9.45;;;;;;;;;;5057388;28;19927;-93
2022/03/28 19:22:55;;;;;;;21.33;9.02;;;;;;;;;;5054263;28;20025;-92